createdAt,value
2022-12-08T00:01:13.491Z,72.56
2022-12-08T00:04:15.141Z,72.23
2022-12-08T00:07:36.602Z,72.31
2022-12-08T00:10:48.815Z,72.30
2022-12-08T00:13:51.482Z,72.31
2022-12-08T00:16:53.746Z,72.58
2022-12-08T00:19:55.438Z,72.02
2022-12-08T00:22:56.940Z,71.95
2022-12-08T00:26:03.268Z,72.49
2022-12-08T00:29:05.305Z,72.56
2022-12-08T00:32:07.140Z,73.13
2022-12-08T00:35:09.188Z,73.09
2022-12-08T00:38:11.125Z,72.97
2022-12-08T00:41:15.506Z,72.84
2022-12-08T00:44:21.124Z,73.32
2022-12-08T00:47:24.990Z,73.25
2022-12-08T00:50:26.868Z,73.20
2022-12-08T00:53:28.470Z,73.67
2022-12-08T00:56:30.214Z,73.48
2022-12-08T00:59:31.815Z,73.31
2022-12-08T01:02:34.508Z,73.07
2022-12-08T01:05:36.310Z,72.56
2022-12-08T01:08:38.764Z,72.84
2022-12-08T01:11:40.453Z,73.14
2022-12-08T01:14:42.068Z,73.48
2022-12-08T01:17:43.759Z,73.74
2022-12-08T01:20:45.395Z,73.42
2022-12-08T01:23:47.025Z,73.21
2022-12-08T01:26:51.525Z,73.29
2022-12-08T01:29:53.079Z,72.80
2022-12-08T01:32:54.676Z,72.58
2022-12-08T01:35:56.455Z,72.85
2022-12-08T01:39:00.512Z,72.77
2022-12-08T01:42:02.127Z,72.92
2022-12-08T01:45:28.865Z,72.47
2022-12-08T01:48:30.583Z,72.74
2022-12-08T01:51:33.093Z,72.94
2022-12-08T01:54:38.512Z,73.00
2022-12-08T01:57:44.920Z,73.06
2022-12-08T02:00:46.611Z,73.37
2022-12-08T02:03:50.300Z,73.37
2022-12-08T02:06:52.575Z,73.62
2022-12-08T02:09:54.880Z,73.56
2022-12-08T02:12:58.506Z,73.98
2022-12-08T02:16:27.615Z,74.40
2022-12-08T02:20:00.859Z,74.57
2022-12-08T02:23:14.870Z,74.50
2022-12-08T02:26:42.801Z,74.74
2022-12-08T02:30:20.632Z,74.67
2022-12-08T02:33:49.204Z,74.76
2022-12-08T02:37:16.187Z,75.18
2022-12-08T02:40:33.293Z,75.19
2022-12-08T02:43:55.569Z,75.32
2022-12-08T02:47:00.396Z,75.44
2022-12-08T02:50:02.267Z,75.37
2022-12-08T02:56:25.902Z,75.37
2022-12-08T02:59:33.581Z,75.65
2022-12-08T03:03:09.976Z,75.65
2022-12-08T03:06:31.750Z,76.05
2022-12-08T03:09:45.694Z,75.68
2022-12-08T03:13:07.925Z,75.98
2022-12-08T03:16:11.505Z,76.23
2022-12-08T03:19:18.595Z,76.16
2022-12-08T03:22:24.051Z,76.43
2022-12-08T03:25:30.892Z,76.19
2022-12-08T03:28:32.722Z,76.27
2022-12-08T03:31:34.835Z,76.58
2022-12-08T03:34:37.236Z,76.80
2022-12-08T03:37:40.497Z,76.79
2022-12-08T03:40:43.077Z,76.55
2022-12-08T03:43:50.075Z,76.46
2022-12-08T03:46:51.805Z,76.64
2022-12-08T03:49:53.595Z,77.01
2022-12-08T03:52:55.357Z,76.99
2022-12-08T03:55:57.094Z,77.03
2022-12-08T03:58:59.227Z,77.24
2022-12-08T04:02:01.101Z,77.34
2022-12-08T04:05:07.088Z,77.26
2022-12-08T04:08:08.854Z,77.39
2022-12-08T04:11:11.300Z,77.06
2022-12-08T04:14:13.061Z,77.33
2022-12-08T04:17:14.988Z,77.51
2022-12-08T04:20:16.686Z,77.50
2022-12-08T04:23:18.587Z,77.57
2022-12-08T04:26:20.186Z,77.41
2022-12-08T04:29:21.898Z,77.31
2022-12-08T04:32:23.490Z,77.50
2022-12-08T04:35:25.809Z,77.40
2022-12-08T04:38:27.606Z,77.38
2022-12-08T04:41:29.155Z,77.61
2022-12-08T04:44:31.036Z,77.37
2022-12-08T04:47:32.633Z,77.38
2022-12-08T04:50:34.341Z,76.52
2022-12-08T04:53:35.900Z,76.94
2022-12-08T04:56:37.649Z,77.34
2022-12-08T04:59:39.285Z,77.22
2022-12-08T05:02:40.998Z,77.09
2022-12-08T05:05:43.508Z,76.48
2022-12-08T05:08:45.212Z,76.74
2022-12-08T05:11:49.075Z,77.05
2022-12-08T05:14:51.226Z,77.27
2022-12-08T05:17:53.197Z,77.62
2022-12-08T05:20:54.835Z,77.58
2022-12-08T05:23:56.504Z,77.51
2022-12-08T05:26:58.139Z,77.78
2022-12-08T05:30:00.057Z,78.18
2022-12-08T05:33:01.868Z,78.04
2022-12-08T05:36:03.791Z,77.97
2022-12-08T05:39:05.764Z,78.29
2022-12-08T05:42:07.412Z,78.47
2022-12-08T05:45:09.812Z,78.47
2022-12-08T05:48:11.511Z,78.31
2022-12-08T05:51:20.043Z,78.57
2022-12-08T05:54:21.698Z,78.65
2022-12-08T05:57:23.360Z,78.37
2022-12-08T06:00:25.117Z,78.49
2022-12-08T06:03:26.827Z,78.34
2022-12-08T06:06:29.826Z,78.41
2022-12-08T06:09:31.572Z,78.58
2022-12-08T06:12:33.179Z,78.49
2022-12-08T06:15:36.248Z,77.59
2022-12-08T06:18:37.923Z,77.04
2022-12-08T06:21:39.758Z,77.52
2022-12-08T06:24:41.440Z,77.56
2022-12-08T06:27:43.061Z,77.72
2022-12-08T06:30:45.020Z,77.90
2022-12-08T06:33:47.414Z,78.42
2022-12-08T06:36:49.317Z,79.17
2022-12-08T06:39:51.887Z,79.52
2022-12-08T06:42:53.457Z,79.31
2022-12-08T06:45:55.563Z,78.93
2022-12-08T06:48:58.352Z,78.78
2022-12-08T06:52:00.092Z,78.77
2022-12-08T06:55:01.798Z,78.42
2022-12-08T06:58:03.486Z,78.52
2022-12-08T07:01:10.389Z,78.62
2022-12-08T07:04:12.140Z,78.41
2022-12-08T07:07:13.737Z,78.63
2022-12-08T07:10:15.370Z,78.25
2022-12-08T07:13:17.022Z,78.43
2022-12-08T07:16:18.804Z,78.62
2022-12-08T07:19:21.409Z,78.31
2022-12-08T07:22:23.015Z,78.48
2022-12-08T07:25:24.669Z,78.64
2022-12-08T07:28:26.328Z,78.58
2022-12-08T07:31:29.041Z,78.26
2022-12-08T07:34:30.780Z,78.58
2022-12-08T07:37:35.565Z,78.31
2022-12-08T07:40:39.156Z,78.65
2022-12-08T07:43:41.724Z,78.53
2022-12-08T07:46:43.469Z,78.80
2022-12-08T07:49:45.082Z,78.61
2022-12-08T07:52:46.704Z,78.70
2022-12-08T07:55:48.324Z,78.31
2022-12-08T07:58:50.190Z,78.36
2022-12-08T08:02:13.192Z,78.25
2022-12-08T08:05:13.580Z,77.94
2022-12-08T08:08:15.342Z,78.17
2022-12-08T08:11:21.360Z,77.99
2022-12-08T08:14:23.452Z,78.04
2022-12-08T08:17:25.224Z,78.21
2022-12-08T08:20:27.081Z,78.17
2022-12-08T08:23:28.694Z,78.28
2022-12-08T08:26:30.387Z,78.34
2022-12-08T08:29:32.152Z,78.21
2022-12-08T08:32:34.313Z,78.33
2022-12-08T08:35:36.055Z,78.41
2022-12-08T08:38:40.262Z,78.66
2022-12-08T08:41:41.951Z,78.39
2022-12-08T08:44:43.565Z,78.05
2022-12-08T08:47:45.330Z,77.91
2022-12-08T08:50:46.865Z,77.53
2022-12-08T08:53:48.572Z,77.42
2022-12-08T08:56:50.120Z,77.35
2022-12-08T08:59:51.760Z,77.01
2022-12-08T09:02:53.469Z,76.98
2022-12-08T09:05:55.604Z,76.94
2022-12-08T09:08:57.337Z,77.21
2022-12-08T09:11:58.945Z,77.16
2022-12-08T09:15:00.552Z,77.24
2022-12-08T09:18:02.455Z,77.24
2022-12-08T09:21:09.298Z,77.38
2022-12-08T09:24:15.947Z,77.12
2022-12-08T09:27:17.712Z,77.22
2022-12-08T09:30:19.378Z,77.07
2022-12-08T09:33:21.133Z,76.77
2022-12-08T09:36:23.079Z,76.95
2022-12-08T09:39:24.773Z,76.88
2022-12-08T09:42:58.256Z,76.61
2022-12-08T09:46:01.113Z,76.62
2022-12-08T09:49:03.854Z,76.84
2022-12-08T09:52:06.364Z,76.75
2022-12-08T09:55:24.802Z,76.51
2022-12-08T09:58:41.623Z,76.50
2022-12-08T10:01:43.406Z,76.58
2022-12-08T10:04:45.179Z,76.45
2022-12-08T10:08:04.102Z,76.35
2022-12-08T10:11:12.486Z,76.20
2022-12-08T10:14:29.339Z,76.30
2022-12-08T10:17:35.017Z,76.58
2022-12-08T10:20:40.520Z,76.38
2022-12-08T10:23:45.245Z,76.16
2022-12-08T10:26:47.132Z,75.91
2022-12-08T10:29:49.011Z,73.67
2022-12-08T10:32:53.086Z,71.90
2022-12-08T10:35:58.581Z,70.15
2022-12-08T10:39:01.408Z,71.08
2022-12-08T10:42:21.877Z,69.14
2022-12-08T10:45:32.559Z,67.65
2022-12-08T10:48:34.375Z,66.86
2022-12-08T10:51:42.861Z,67.77
2022-12-08T10:54:44.573Z,69.45
2022-12-08T10:57:46.618Z,69.83
2022-12-08T11:00:48.339Z,70.63
2022-12-08T11:03:52.887Z,70.05
2022-12-08T11:06:54.817Z,70.00
2022-12-08T11:09:58.290Z,70.40
2022-12-08T11:13:06.111Z,70.86
2022-12-08T11:16:08.664Z,70.61
2022-12-08T11:19:16.964Z,71.08
2022-12-08T11:22:24.223Z,71.07
2022-12-08T11:25:27.638Z,70.80
2022-12-08T11:28:29.497Z,71.84
2022-12-08T11:31:35.202Z,72.53
2022-12-08T11:34:49.655Z,72.31
2022-12-08T11:37:51.888Z,72.35
2022-12-08T11:40:57.747Z,72.72
2022-12-08T11:44:07.846Z,72.61
2022-12-08T11:47:21.229Z,72.89
2022-12-08T11:50:28.893Z,72.87
2022-12-08T11:53:38.092Z,73.43
2022-12-08T11:56:45.948Z,73.67
2022-12-08T11:59:50.608Z,73.76
2022-12-08T12:03:06.440Z,73.84
2022-12-08T12:06:53.757Z,73.87
2022-12-08T12:10:05.868Z,74.25
2022-12-08T12:13:48.775Z,74.25
2022-12-08T12:16:54.700Z,74.42
2022-12-08T12:19:59.641Z,74.33
2022-12-08T12:23:21.637Z,74.57
2022-12-08T12:26:28.859Z,74.66
2022-12-08T12:29:34.057Z,74.71
2022-12-08T12:32:45.745Z,74.64
2022-12-08T12:35:50.488Z,74.87
2022-12-08T12:39:06.285Z,74.86
2022-12-08T12:42:07.992Z,74.85
2022-12-08T12:45:12.536Z,74.90
2022-12-08T12:48:21.899Z,74.93
2022-12-08T12:51:39.114Z,74.81
2022-12-08T12:55:10.066Z,74.85
2022-12-08T12:58:42.636Z,74.96
2022-12-08T13:01:57.367Z,74.77
2022-12-08T13:04:59.140Z,74.79
2022-12-08T13:08:01.346Z,74.94
2022-12-08T13:11:05.960Z,75.00
2022-12-08T13:14:26.726Z,75.04
2022-12-08T13:17:31.192Z,74.97
2022-12-08T13:20:41.819Z,75.12
2022-12-08T13:23:47.090Z,75.39
2022-12-08T13:27:04.019Z,75.28
2022-12-08T13:30:40.235Z,75.24
2022-12-08T13:33:42.049Z,75.13
2022-12-08T13:36:47.755Z,75.30
2022-12-08T13:39:56.537Z,75.36
2022-12-08T13:43:17.004Z,75.38
2022-12-08T13:57:10.772Z,75.33
2022-12-08T14:00:20.098Z,75.10
2022-12-08T14:03:21.845Z,75.29
2022-12-08T14:06:39.370Z,75.59
2022-12-08T14:09:41.690Z,75.57
2022-12-08T14:12:47.086Z,75.69
2022-12-08T14:15:48.874Z,75.84
2022-12-08T14:18:51.383Z,75.77
2022-12-08T14:22:09.828Z,75.82
2022-12-08T14:25:15.781Z,76.00
2022-12-08T14:28:17.554Z,75.97
2022-12-08T14:31:19.127Z,76.00
2022-12-08T14:34:20.817Z,76.19
2022-12-08T14:37:23.191Z,76.22
2022-12-08T14:40:29.602Z,76.21
2022-12-08T14:43:32.704Z,76.41
2022-12-08T14:46:34.628Z,76.42
2022-12-08T14:49:39.085Z,76.35
2022-12-08T14:52:43.801Z,76.48
2022-12-08T14:55:47.815Z,76.46
2022-12-08T14:58:51.763Z,76.44
2022-12-08T15:02:10.472Z,76.55
2022-12-08T15:05:17.846Z,76.52
2022-12-08T15:08:19.684Z,76.47
2022-12-08T15:11:21.575Z,76.53
2022-12-08T15:14:34.975Z,76.50
2022-12-08T15:18:16.599Z,76.53
2022-12-08T15:21:18.423Z,76.51
2022-12-08T15:24:20.319Z,76.53
2022-12-08T15:27:24.306Z,76.74
2022-12-08T15:30:28.948Z,76.72
2022-12-08T15:33:30.834Z,76.69
2022-12-08T15:36:32.443Z,76.75
2022-12-08T15:39:38.178Z,76.67
2022-12-08T15:42:39.964Z,76.69
2022-12-08T15:45:50.513Z,76.89
2022-12-08T15:48:58.314Z,76.97
2022-12-08T15:52:10.825Z,76.78
2022-12-08T15:55:15.494Z,76.88
2022-12-08T16:01:45.491Z,76.74
2022-12-08T16:05:33.341Z,76.75
2022-12-08T16:08:44.691Z,76.82
2022-12-08T16:12:11.110Z,76.81
2022-12-08T16:18:37.177Z,77.00
2022-12-08T16:25:14.778Z,77.02
2022-12-08T16:31:41.849Z,76.69
2022-12-08T16:34:43.619Z,77.24
2022-12-08T16:37:45.428Z,76.95
2022-12-08T16:41:06.448Z,77.45
2022-12-08T16:44:08.057Z,77.08
2022-12-08T16:47:09.880Z,77.21
2022-12-08T16:50:14.440Z,77.22
2022-12-08T16:53:16.181Z,77.10
2022-12-08T16:56:18.481Z,77.02
2022-12-08T16:59:20.263Z,77.13
2022-12-08T17:02:22.770Z,77.20
2022-12-08T17:05:24.963Z,77.20
2022-12-08T17:08:27.359Z,77.11
2022-12-08T17:11:37.539Z,77.34
2022-12-08T17:14:43.222Z,77.27
2022-12-08T17:17:45.231Z,77.48
2022-12-08T17:20:46.928Z,77.11
2022-12-08T17:23:48.616Z,77.22
2022-12-08T17:26:51.860Z,77.20
2022-12-08T17:29:53.765Z,77.18
2022-12-08T17:32:55.407Z,77.26
2022-12-08T17:35:57.189Z,76.98
2022-12-08T17:38:59.298Z,76.27
2022-12-08T17:42:00.952Z,76.01
2022-12-08T17:45:02.711Z,76.29
2022-12-08T17:48:04.680Z,76.99
2022-12-08T17:51:08.939Z,77.23
2022-12-08T17:54:10.659Z,77.54
2022-12-08T17:57:12.276Z,77.68
2022-12-08T18:00:14.314Z,77.22
2022-12-08T18:03:16.640Z,77.09
2022-12-08T18:06:18.230Z,77.43
2022-12-08T18:09:20.245Z,77.26
2022-12-08T18:12:23.760Z,77.40
2022-12-08T18:15:26.201Z,76.63
2022-12-08T18:18:27.942Z,76.54
2022-12-08T18:21:29.448Z,76.79
2022-12-08T18:24:31.434Z,76.53
2022-12-08T18:27:37.282Z,76.99
2022-12-08T18:30:41.858Z,77.25
2022-12-08T18:33:44.956Z,76.90
2022-12-08T18:36:47.452Z,76.95
2022-12-08T18:39:49.134Z,76.88
2022-12-08T18:42:50.762Z,77.20
2022-12-08T18:46:00.893Z,77.40
2022-12-08T18:49:02.678Z,77.74
2022-12-08T18:52:04.914Z,77.73
2022-12-08T18:55:07.693Z,77.40
2022-12-08T18:58:11.100Z,77.72
2022-12-08T19:01:15.941Z,77.33
2022-12-08T19:04:28.262Z,77.25
2022-12-08T19:07:30.639Z,77.64
2022-12-08T19:10:32.241Z,77.66
2022-12-08T19:13:33.872Z,77.40
2022-12-08T19:16:35.907Z,77.54
2022-12-08T19:19:37.662Z,77.55
2022-12-08T19:22:39.224Z,77.51
2022-12-08T19:25:41.298Z,77.53
2022-12-08T19:28:43.105Z,77.28
2022-12-08T19:31:44.851Z,77.36
2022-12-08T19:34:46.937Z,77.68
2022-12-08T19:37:48.696Z,77.65
2022-12-08T19:41:09.028Z,77.80
2022-12-08T19:44:29.073Z,77.97
2022-12-08T19:47:30.866Z,78.08
2022-12-08T19:50:39.221Z,77.98
2022-12-08T19:53:47.360Z,77.91
2022-12-08T19:56:49.534Z,77.94
2022-12-08T19:59:56.154Z,77.80
2022-12-08T20:02:59.891Z,77.64
2022-12-08T20:06:01.954Z,77.68
2022-12-08T20:09:03.839Z,77.86
2022-12-08T20:12:06.191Z,77.94
2022-12-08T20:15:10.211Z,77.17
2022-12-08T20:18:13.236Z,76.87
2022-12-08T20:21:14.858Z,77.29
2022-12-08T20:24:17.146Z,77.53
2022-12-08T20:27:19.023Z,77.94
2022-12-08T20:30:20.994Z,77.98
2022-12-08T20:33:22.751Z,77.84
2022-12-08T20:36:24.479Z,78.11
2022-12-08T20:39:26.307Z,77.96
2022-12-08T20:42:28.341Z,77.96
2022-12-08T20:45:30.330Z,77.95
2022-12-08T20:48:32.087Z,78.12
2022-12-08T20:51:34.395Z,78.42
2022-12-08T20:54:37.361Z,78.24
2022-12-08T20:57:39.223Z,78.49
2022-12-08T21:00:41.104Z,78.44
2022-12-08T21:03:44.013Z,78.43
2022-12-08T21:06:46.314Z,78.47
2022-12-08T21:09:48.358Z,78.90
2022-12-08T21:12:50.421Z,78.94
2022-12-08T21:15:52.404Z,78.77
2022-12-08T21:18:54.423Z,78.94
2022-12-08T21:21:56.379Z,78.86
2022-12-08T21:24:58.518Z,78.86
2022-12-08T21:28:00.228Z,78.76
2022-12-08T21:31:05.651Z,78.85
2022-12-08T21:34:07.626Z,78.82
2022-12-08T21:37:09.791Z,78.81
2022-12-08T21:40:12.252Z,79.15
2022-12-08T21:43:14.623Z,78.79
2022-12-08T21:46:17.431Z,78.67
2022-12-08T21:49:19.612Z,79.06
2022-12-08T21:52:21.455Z,78.87
2022-12-08T21:55:23.950Z,79.07
2022-12-08T21:58:26.398Z,78.89
2022-12-08T22:01:28.598Z,78.79
2022-12-08T22:04:30.663Z,79.05
2022-12-08T22:07:32.682Z,78.85
2022-12-08T22:10:34.600Z,78.68
2022-12-08T22:13:38.653Z,78.43
2022-12-08T22:16:40.550Z,78.69
2022-12-08T22:19:42.617Z,78.96
2022-12-08T22:22:44.699Z,78.76
2022-12-08T22:25:56.231Z,78.67
2022-12-08T22:28:58.056Z,78.64
2022-12-08T22:32:00.097Z,78.83
2022-12-08T22:35:01.956Z,78.73
2022-12-08T22:38:03.802Z,78.54
2022-12-08T22:41:06.532Z,78.70
2022-12-08T22:44:09.509Z,78.56
2022-12-08T22:47:11.575Z,78.88
2022-12-08T22:50:14.038Z,78.98
2022-12-08T22:53:15.744Z,78.59
2022-12-08T22:56:18.115Z,78.70
2022-12-08T22:59:19.990Z,79.00
2022-12-08T23:02:21.547Z,78.58
2022-12-08T23:05:23.407Z,78.67
2022-12-08T23:08:25.481Z,78.80
2022-12-08T23:11:30.789Z,78.59
2022-12-08T23:14:32.554Z,78.60
2022-12-08T23:17:34.753Z,78.74
2022-12-08T23:20:36.662Z,78.86
2022-12-08T23:23:38.562Z,78.86
2022-12-08T23:26:40.264Z,78.87
2022-12-08T23:29:42.008Z,78.79
2022-12-08T23:32:43.696Z,78.79
2022-12-08T23:35:45.913Z,78.80
2022-12-08T23:38:48.174Z,78.85
2022-12-08T23:41:50.581Z,78.94
2022-12-08T23:44:52.420Z,78.96
2022-12-08T23:47:54.614Z,78.98
2022-12-08T23:50:57.188Z,78.96
2022-12-08T23:53:58.841Z,79.01
2022-12-08T23:57:00.712Z,79.12
